Tropical Cyclones
[Index]
Main Index Home Page Stock Weather Photos Extreme Storms Discussion Storm News and Storm Chasing Reports Tropical Cyclones / Hurricanes / Typhoons Weather Data and Links Wild Fires / Bushfires Weather Observation Techniques Weather Picture Catalogue Tornado Pictures and Reports Stock Video Footage and DVDs for sale
Season 1982-1983 Tropical Cyclone DADAFY Track Map
Season 1982-1983 Summaries: [BoM-AU] [JTWC-AU] [JTWC-SIO] [JTWC-SPAC] [JTWC-SH]
<<- Previous TC | JTWC 1982-1983 Season | Next TC ->>

click for intensity scale information  Lat/long Grid: Show Hide

 Date Labels: Show Hide

Joint Typhoon Warning Centre Cyclone Data

Name: DADAFY

21 Dec 1982 00:00 UTC to 30 Dec 1982 00:00 UTC

    date/time    lat    long     hPa   cat  kts
1982-12-21 00    8.9    60.1                  20          
1982-12-21 06    9.5    61.3                  25          
1982-12-21 12   10.0    62.3                  25          
1982-12-21 18   10.5    63.2                  25          
1982-12-22 00   11.0    63.9                  25          
1982-12-22 06   11.3    64.4                  25          
1982-12-22 12   11.5    64.9                  25          
1982-12-22 18   11.7    65.5                  25          
1982-12-23 00   11.9    66.1                  25          
1982-12-23 06   12.0    66.6                  25          
1982-12-23 12   12.1    67.1                  25          
1982-12-23 18   12.2    67.7                  25          
1982-12-24 00   12.4    68.2                  25          
1982-12-24 06   12.7    68.7                  25          
1982-12-24 12   13.0    69.0                  30          
1982-12-24 18   13.3    69.2                  30          
1982-12-25 00   13.7    69.4                  35          
1982-12-25 06   14.2    69.8            1     40          
1982-12-25 12   14.7    70.1            1     45          
1982-12-25 18   15.0    70.4            1     45          
1982-12-26 00   15.4    70.7            1     50          
1982-12-26 06   15.8    71.1            1     50          
1982-12-26 12   16.3    71.5            2     55          
1982-12-26 18   16.7    71.8            2     55          
1982-12-27 00   17.2    72.1            2     60          
1982-12-27 06   17.7    72.4            2     60          
1982-12-27 12   18.3    72.6            2     65          
1982-12-27 18   18.8    72.7            2     65          
1982-12-28 00   19.4    72.7            2     65          
1982-12-28 06   20.1    72.7            2     65          
1982-12-28 12   20.9    72.7            2     60          
1982-12-28 18   21.8    72.5            2     55          
1982-12-29 00   22.7    72.1            1     45          
1982-12-29 06   23.6    71.5            1     40          
1982-12-29 12   24.5    70.9                  35          
1982-12-29 18   25.3    71.1                  30          
1982-12-30 00   26.0    72.1                  30          
Winds are 1-min average.

Tropical cyclone tracks developed by Michael Bath using data from the Joint Typhoon Warning Centre Best Tracks and Google Maps.


[Australian Severe Weather index] [Copyright Notice] [Email Contacts] [Search This Site] [Privacy Policy]
Document: tropical_cyclone_dadafy.htm Updated: 18 September 2016